Terminal Aerodrome Forecast
Issued by NWS Tuscon, AZ

Home | Current Version | Previous Version | Text Only | Print | Product List | Glossary On
Versions: 1 2 3 4 5 6 7 8 9 10 11 12
382
FTUS45 KTWC 110520
TAFDUG
TAF
KDUG 110520Z 1106/1206 35005KT P6SM BKN200
     FM111000 VRB03KT P6SM FEW140 BKN200
     FM111900 24010G18KT P6SM FEW140 SCT200=

USA.gov is the U.S. government's official web portal to all federal, state and local government web resources and services.